aviador You're here:

KJLN Decoded Metar

JOPLIN in MO, USA
Report Time2017-11-20 12:53:00
UTC Time2017-11-20 13:37:14
Flight Rules vfr VFR
Wind200° at 14 Gusting to 22 kt
W.Decomp.*RWY 18: 13.5 kt HW 3.9 kt RCW
RWY 23: 11.6 kt HW 7.8 kt LCW
RWY 13: 5.7 kt HW 12.8 kt RCW
W.Rank200° ranks 4
Current wind is above 200° avg. (10.9)
Visibility9999 m
Phenomena:N/A
Clouds:N/A
Expected CloudBase > 4,000 ft AGL from Temp-Dew spread
CeilingNone
Temp07°C (ISA -6)
Dew Point-3°C (49% RH)
AAT-0.4°C
QNH1019 hPa
Density Alt121 ft
Elevation981 ft
Report Wrong Elevation
Raw Report
KJLN 201253Z 20014G22KT 10SM CLR 07/M03 A3010 RMK AO2 SLP194
T00721028=

Extra information for KJLN:More info

Metar Taf Metar & Taf Last 4 Metars F.Rules Stats Wind Profile Meteogram Temp Stats Airport Information Weather charts Add Link Nearby VenuesMetar ALERT Operation Metar Decoded Social comments

AIRNAV info for KJLN